createdAt,value
2019-05-13T00:00:05.349Z,11.24
2019-05-13T00:02:40.739Z,11.17
2019-05-13T00:05:11.659Z,11.10
2019-05-13T00:07:47.383Z,11.07
2019-05-13T00:10:17.775Z,11.01
2019-05-13T00:12:48.169Z,10.93
2019-05-13T00:15:18.768Z,10.90
2019-05-13T00:17:49.406Z,10.84
2019-05-13T00:20:19.798Z,10.79
2019-05-13T00:22:54.165Z,10.75
2019-05-13T00:25:25.255Z,10.71
2019-05-13T00:27:55.520Z,10.69
2019-05-13T00:30:26.229Z,10.63
2019-05-13T00:32:58.281Z,10.57
2019-05-13T00:35:28.971Z,10.53
2019-05-13T00:37:59.699Z,10.48
2019-05-13T00:40:33.433Z,10.44
2019-05-13T00:43:04.149Z,10.36
2019-05-13T00:45:34.705Z,10.31
2019-05-13T00:48:05.188Z,10.25
2019-05-13T00:50:35.568Z,10.21
2019-05-13T00:53:06.653Z,10.14
2019-05-13T00:55:37.698Z,10.12
2019-05-13T00:58:08.324Z,10.06
2019-05-13T01:00:38.983Z,10.04
2019-05-13T01:03:09.697Z,10.04
2019-05-13T01:05:40.292Z,9.98
2019-05-13T01:08:10.605Z,9.93
2019-05-13T01:10:40.924Z,9.94
2019-05-13T01:13:13.176Z,9.92
2019-05-13T01:15:44.259Z,9.86
2019-05-13T01:18:15.636Z,9.86
2019-05-13T01:20:49.859Z,9.83
2019-05-13T01:23:20.572Z,9.78
2019-05-13T01:25:51.255Z,9.73
2019-05-13T01:28:23.911Z,9.71
2019-05-13T01:30:54.649Z,9.69
2019-05-13T01:33:26.489Z,9.66
2019-05-13T01:35:57.234Z,9.63
2019-05-13T01:38:27.857Z,9.60
2019-05-13T01:40:58.897Z,9.55
2019-05-13T01:43:29.557Z,9.52
2019-05-13T01:46:00.342Z,9.50
2019-05-13T01:48:33.307Z,9.48
2019-05-13T01:51:04.089Z,9.48
2019-05-13T01:53:35.230Z,9.45
2019-05-13T01:56:05.551Z,9.42
2019-05-13T01:58:36.179Z,9.38
2019-05-13T02:01:10.711Z,9.34
2019-05-13T02:03:41.075Z,9.32
2019-05-13T02:06:13.958Z,9.29
2019-05-13T02:08:44.342Z,9.28
2019-05-13T02:11:14.999Z,9.28
2019-05-13T02:13:45.639Z,9.27
2019-05-13T02:16:16.258Z,9.23
2019-05-13T02:18:46.585Z,9.19
2019-05-13T02:21:16.863Z,9.18
2019-05-13T02:23:47.847Z,9.17
2019-05-13T02:26:18.612Z,9.15
2019-05-13T02:28:49.204Z,9.13
2019-05-13T02:31:31.953Z,9.11
2019-05-13T02:33:53.166Z,9.11
2019-05-13T02:36:23.739Z,9.09
2019-05-13T02:38:54.805Z,9.05
2019-05-13T02:41:25.766Z,9.03
2019-05-13T02:43:56.684Z,9.01
2019-05-13T02:46:27.016Z,8.95
2019-05-13T02:48:57.642Z,8.91
2019-05-13T02:51:28.248Z,8.90
2019-05-13T02:53:59.254Z,8.86
2019-05-13T02:56:32.821Z,8.85
2019-05-13T02:59:04.042Z,8.83
2019-05-13T03:01:34.700Z,8.79
2019-05-13T03:04:05.759Z,8.75
2019-05-13T03:06:36.373Z,8.74
2019-05-13T03:09:08.654Z,8.71
2019-05-13T03:11:41.513Z,8.69
2019-05-13T03:14:12.819Z,8.71
2019-05-13T03:16:53.497Z,8.69
2019-05-13T03:19:23.823Z,8.65
2019-05-13T03:21:54.813Z,8.66
2019-05-13T03:24:25.562Z,8.66
2019-05-13T03:26:56.195Z,8.68
2019-05-13T03:29:26.825Z,8.70
2019-05-13T03:31:57.143Z,8.66
2019-05-13T03:34:28.577Z,8.66
2019-05-13T03:37:05.473Z,8.62
2019-05-13T03:39:35.416Z,8.61
2019-05-13T03:42:06.562Z,8.60
2019-05-13T03:44:42.576Z,8.63
2019-05-13T03:47:12.931Z,8.63
2019-05-13T03:49:44.822Z,8.65
2019-05-13T03:52:16.052Z,8.71
2019-05-13T03:54:47.676Z,8.77
2019-05-13T03:57:18.451Z,8.81
2019-05-13T03:59:52.560Z,8.90
2019-05-13T04:02:24.009Z,8.98
2019-05-13T04:04:58.354Z,9.04
2019-05-13T04:07:27.018Z,9.10
2019-05-13T04:09:57.571Z,9.11
2019-05-13T04:12:28.681Z,9.75
2019-05-13T04:15:03.277Z,12.02
2019-05-13T04:17:33.070Z,13.99
2019-05-13T04:20:03.586Z,15.58
2019-05-13T04:22:34.030Z,16.65
2019-05-13T04:25:05.250Z,17.54
2019-05-13T04:27:36.299Z,18.24
2019-05-13T04:30:13.399Z,19.17
2019-05-13T04:32:44.224Z,19.56
2019-05-13T04:35:14.938Z,20.06
2019-05-13T04:37:45.573Z,20.69
2019-05-13T04:40:16.114Z,20.76
2019-05-13T04:42:46.423Z,20.67
2019-05-13T04:45:18.215Z,20.71
2019-05-13T04:47:52.564Z,21.21
2019-05-13T04:50:22.635Z,21.30
2019-05-13T04:52:54.176Z,21.43
2019-05-13T04:55:24.520Z,21.78
2019-05-13T04:57:55.747Z,21.90
2019-05-13T05:01:28.302Z,22.13
2019-05-13T05:04:22.150Z,21.81
2019-05-13T05:07:03.481Z,21.79
2019-05-13T05:10:22.080Z,22.05
2019-05-13T05:13:26.651Z,21.90
2019-05-13T05:16:28.963Z,22.33
2019-05-13T05:19:32.366Z,22.41
2019-05-13T05:22:24.523Z,22.73
2019-05-13T05:25:13.944Z,22.63
2019-05-13T05:28:33.803Z,22.28
2019-05-13T05:31:36.955Z,21.93
2019-05-13T05:35:26.679Z,22.14
2019-05-13T05:38:25.246Z,22.67
2019-05-13T05:40:56.344Z,22.60
2019-05-13T05:43:31.376Z,22.97
2019-05-13T05:46:04.255Z,23.01
2019-05-13T05:48:38.094Z,23.65
2019-05-13T05:51:13.199Z,23.56
2019-05-13T05:53:47.315Z,23.13
2019-05-13T05:56:22.008Z,23.03
2019-05-13T05:58:54.152Z,22.82
2019-05-13T06:01:26.227Z,22.67
2019-05-13T06:03:58.585Z,22.51
2019-05-13T06:06:33.003Z,22.41
2019-05-13T06:09:06.784Z,21.95
2019-05-13T06:11:38.102Z,20.04
2019-05-13T06:14:11.116Z,17.71
2019-05-13T06:16:42.534Z,16.10
2019-05-13T06:19:13.182Z,14.96
2019-05-13T06:21:43.871Z,14.39
2019-05-13T06:24:14.204Z,13.97
2019-05-13T06:26:44.530Z,13.73
2019-05-13T06:29:15.357Z,13.50
2019-05-13T06:31:46.214Z,13.32
2019-05-13T06:34:16.878Z,13.20
2019-05-13T06:36:48.315Z,13.13
2019-05-13T06:39:19.127Z,13.07
2019-05-13T06:41:51.657Z,13.09
2019-05-13T06:44:22.755Z,13.12
2019-05-13T06:46:53.486Z,13.26
2019-05-13T06:49:23.998Z,13.38
2019-05-13T06:51:54.400Z,13.31
2019-05-13T06:54:25.198Z,13.20
2019-05-13T06:56:55.951Z,13.12
2019-05-13T06:59:34.074Z,13.11
2019-05-13T07:02:04.590Z,13.13
2019-05-13T07:04:35.424Z,13.30
2019-05-13T07:07:13.142Z,13.30
2019-05-13T07:09:42.675Z,13.26
2019-05-13T07:12:12.928Z,13.32
2019-05-13T07:14:55.160Z,13.49
2019-05-13T07:17:25.215Z,13.59
2019-05-13T07:19:55.688Z,13.69
2019-05-13T07:22:26.624Z,13.78
2019-05-13T07:24:57.354Z,13.86
2019-05-13T07:27:28.168Z,13.92
2019-05-13T07:29:58.531Z,13.87
2019-05-13T07:32:31.488Z,13.86
2019-05-13T07:35:13.367Z,13.78
2019-05-13T07:37:44.874Z,13.81
2019-05-13T07:40:16.126Z,13.87
2019-05-13T07:42:46.876Z,13.96
2019-05-13T07:45:21.321Z,14.11
2019-05-13T07:47:52.241Z,14.03
2019-05-13T07:50:25.084Z,14.00
2019-05-13T07:52:55.867Z,14.07
2019-05-13T07:55:26.378Z,14.09
2019-05-13T07:57:57.488Z,14.12
2019-05-13T08:00:27.941Z,14.31
2019-05-13T08:03:01.017Z,14.47
2019-05-13T08:05:31.525Z,14.55
2019-05-13T08:08:02.461Z,14.42
2019-05-13T08:10:33.651Z,14.53
2019-05-13T08:13:22.266Z,14.87
2019-05-13T08:15:54.886Z,14.85
2019-05-13T08:18:34.096Z,14.81
2019-05-13T08:21:04.795Z,14.88
2019-05-13T08:23:35.598Z,14.97
2019-05-13T08:26:05.980Z,15.02
2019-05-13T08:28:52.797Z,15.03
2019-05-13T08:31:09.165Z,15.05
2019-05-13T08:33:42.300Z,14.91
2019-05-13T08:36:13.400Z,15.01
2019-05-13T08:38:43.958Z,15.12
2019-05-13T08:41:19.002Z,15.06
2019-05-13T08:44:16.237Z,14.93
2019-05-13T08:46:58.665Z,14.99
2019-05-13T08:49:32.517Z,14.91
2019-05-13T08:52:05.876Z,15.00
2019-05-13T08:54:36.492Z,15.14
2019-05-13T08:57:07.397Z,15.17
2019-05-13T08:59:42.193Z,15.29
2019-05-13T09:02:11.940Z,15.33
2019-05-13T09:04:42.650Z,15.38
2019-05-13T09:07:16.609Z,15.33
2019-05-13T09:09:47.139Z,15.35
2019-05-13T09:14:52.608Z,15.52
2019-05-13T09:17:24.062Z,15.48
2019-05-13T09:19:57.087Z,15.51
2019-05-13T09:22:28.717Z,15.65
2019-05-13T09:25:02.151Z,15.62
2019-05-13T09:27:35.020Z,15.53
2019-05-13T09:30:08.438Z,15.85
2019-05-13T09:32:39.351Z,15.88
2019-05-13T09:35:12.018Z,15.95
2019-05-13T09:37:51.657Z,15.94
2019-05-13T09:40:24.862Z,15.96
2019-05-13T09:42:55.530Z,15.97
2019-05-13T09:45:26.846Z,16.08
2019-05-13T09:48:05.084Z,16.25
2019-05-13T09:50:36.316Z,16.20
2019-05-13T09:53:22.315Z,16.42
2019-05-13T09:55:58.026Z,16.59
2019-05-13T09:58:32.185Z,16.58
2019-05-13T10:01:02.996Z,16.52
2019-05-13T10:03:33.793Z,16.40
2019-05-13T10:06:04.886Z,16.55
2019-05-13T10:08:35.230Z,16.73
2019-05-13T10:11:15.672Z,16.79
2019-05-13T10:13:46.266Z,16.58
2019-05-13T10:16:16.685Z,16.76
2019-05-13T10:18:48.011Z,17.04
2019-05-13T10:21:21.672Z,17.15
2019-05-13T10:23:58.806Z,17.38
2019-05-13T10:26:28.076Z,17.34
2019-05-13T10:29:01.732Z,17.25
2019-05-13T10:31:37.631Z,17.09
2019-05-13T10:34:08.700Z,16.66
2019-05-13T10:36:41.545Z,16.66
2019-05-13T10:39:14.032Z,16.96
2019-05-13T10:41:45.003Z,16.94
2019-05-13T10:44:16.405Z,16.71
2019-05-13T10:46:52.062Z,16.98
2019-05-13T10:49:22.971Z,17.21
2019-05-13T10:51:53.509Z,17.38
2019-05-13T10:54:23.970Z,17.69
2019-05-13T10:56:59.425Z,17.87
2019-05-13T10:59:27.084Z,17.88
2019-05-13T11:02:02.708Z,18.13
2019-05-13T11:04:36.440Z,18.15
2019-05-13T11:07:07.391Z,17.91
2019-05-13T11:09:41.797Z,17.97
2019-05-13T11:12:13.296Z,17.90
2019-05-13T11:14:51.495Z,17.85
2019-05-13T11:17:31.093Z,17.60
2019-05-13T11:20:03.110Z,17.35
2019-05-13T11:22:32.998Z,17.34
2019-05-13T11:25:03.358Z,17.52
2019-05-13T11:27:34.934Z,17.57
2019-05-13T11:30:07.281Z,17.83
2019-05-13T11:32:38.345Z,18.19
2019-05-13T11:35:12.359Z,18.56
2019-05-13T11:37:43.572Z,18.58
2019-05-13T11:40:14.475Z,18.34
2019-05-13T11:42:45.270Z,18.11
2019-05-13T11:45:16.289Z,17.91
2019-05-13T11:47:46.690Z,17.66
2019-05-13T11:50:17.536Z,17.86
2019-05-13T11:52:47.891Z,18.28
2019-05-13T11:55:18.740Z,18.51
2019-05-13T11:57:49.333Z,18.62
2019-05-13T12:00:53.209Z,18.50
2019-05-13T12:03:23.527Z,18.14
2019-05-13T12:05:54.190Z,17.96
2019-05-13T12:08:25.392Z,18.01
2019-05-13T12:10:55.715Z,18.34
2019-05-13T12:13:26.734Z,18.41
2019-05-13T12:15:57.709Z,18.79
2019-05-13T12:18:31.214Z,18.99
2019-05-13T12:21:03.327Z,18.60
2019-05-13T12:23:34.388Z,18.38
2019-05-13T12:26:06.349Z,18.21
2019-05-13T12:28:41.533Z,18.09
2019-05-13T12:31:13.427Z,17.99
2019-05-13T12:33:44.290Z,18.22
2019-05-13T12:36:18.566Z,18.66
2019-05-13T12:38:52.940Z,19.09
2019-05-13T12:41:23.042Z,19.55
2019-05-13T12:43:54.260Z,19.55
2019-05-13T12:46:25.141Z,18.80
2019-05-13T12:48:55.665Z,18.74
2019-05-13T12:51:26.313Z,18.58
2019-05-13T12:53:56.762Z,18.57
2019-05-13T12:56:32.843Z,19.03
2019-05-13T12:59:02.904Z,19.37
2019-05-13T13:01:33.620Z,19.63
2019-05-13T13:04:04.424Z,19.77
2019-05-13T13:06:40.698Z,19.78
2019-05-13T13:09:12.434Z,19.33
2019-05-13T13:11:43.467Z,19.57
2019-05-13T13:14:16.538Z,19.74
2019-05-13T13:16:46.766Z,19.63
2019-05-13T13:19:17.438Z,19.68
2019-05-13T13:21:47.743Z,19.50
2019-05-13T13:24:18.046Z,19.34
2019-05-13T13:26:48.369Z,19.33
2019-05-13T13:29:21.993Z,19.31
2019-05-13T13:31:55.664Z,19.40
2019-05-13T13:34:26.402Z,19.88
2019-05-13T13:36:57.143Z,19.79
2019-05-13T13:39:27.950Z,19.62
2019-05-13T13:42:04.981Z,19.42
2019-05-13T13:44:35.001Z,18.93
2019-05-13T13:47:16.994Z,18.71
2019-05-13T13:49:49.735Z,18.54
2019-05-13T13:52:22.907Z,18.36
2019-05-13T13:55:09.151Z,18.08
2019-05-13T13:57:44.822Z,17.86
2019-05-13T14:00:32.918Z,17.77
2019-05-13T14:02:53.723Z,17.96
2019-05-13T14:05:42.577Z,18.23
2019-05-13T14:07:04.309Z,15.54
2019-05-13T14:08:15.377Z,18.49
2019-05-13T14:10:47.174Z,18.49
2019-05-13T14:13:28.048Z,18.49
2019-05-13T14:16:01.876Z,18.14
2019-05-13T14:18:36.954Z,17.74
2019-05-13T14:21:08.259Z,17.51
2019-05-13T14:23:47.452Z,17.38
2019-05-13T14:26:22.222Z,17.28
2019-05-13T14:29:02.667Z,17.43
2019-05-13T14:31:41.397Z,18.08
2019-05-13T14:34:12.929Z,18.69
2019-05-13T14:36:48.125Z,18.69
2019-05-13T14:39:24.552Z,18.65
2019-05-13T14:42:01.543Z,18.59
2019-05-13T14:44:41.390Z,18.37
2019-05-13T14:47:12.599Z,18.25
2019-05-13T14:49:43.367Z,18.28
2019-05-13T14:52:13.832Z,18.22
2019-05-13T14:54:44.443Z,18.25
2019-05-13T14:57:15.218Z,18.15
2019-05-13T14:59:47.996Z,17.93
2019-05-13T15:02:25.846Z,17.79
2019-05-13T15:04:57.494Z,17.69
2019-05-13T15:07:31.692Z,17.59
2019-05-13T15:10:12.291Z,17.72
2019-05-13T15:12:45.999Z,17.85
2019-05-13T15:15:22.419Z,17.86
2019-05-13T15:17:54.735Z,17.87
2019-05-13T15:20:25.144Z,17.90
2019-05-13T15:22:59.268Z,17.89
2019-05-13T15:25:35.610Z,17.79
2019-05-13T15:28:07.369Z,17.70
2019-05-13T15:30:42.247Z,17.58
2019-05-13T15:33:25.969Z,17.69
2019-05-13T15:36:16.067Z,17.99
2019-05-13T15:38:51.525Z,18.28
2019-05-13T15:41:41.767Z,18.39
2019-05-13T15:44:18.617Z,18.36
2019-05-13T15:46:49.066Z,18.52
2019-05-13T15:49:27.506Z,18.46
2019-05-13T15:52:01.716Z,18.42
2019-05-13T15:54:32.723Z,18.22
2019-05-13T15:57:03.969Z,18.10
2019-05-13T15:59:34.555Z,18.04
2019-05-13T16:02:08.489Z,17.96
2019-05-13T16:04:49.918Z,17.76
2019-05-13T16:07:12.547Z,17.54
2019-05-13T16:09:43.206Z,17.34
2019-05-13T16:12:14.202Z,17.22
2019-05-13T16:14:44.856Z,17.17
2019-05-13T16:17:15.938Z,17.21
2019-05-13T16:19:47.111Z,17.25
2019-05-13T16:22:19.634Z,17.34
2019-05-13T16:24:52.118Z,17.38
2019-05-13T16:27:22.401Z,17.34
2019-05-13T16:29:53.347Z,17.32
2019-05-13T16:32:24.138Z,17.34
2019-05-13T16:34:54.849Z,17.36
2019-05-13T16:37:26.109Z,17.28
2019-05-13T16:39:56.834Z,17.20
2019-05-13T16:42:31.706Z,17.15
2019-05-13T16:45:14.838Z,17.07
2019-05-13T16:47:37.177Z,17.00
2019-05-13T16:50:08.776Z,16.96
2019-05-13T16:52:41.645Z,16.93
2019-05-13T16:55:13.999Z,16.92
2019-05-13T16:57:44.367Z,16.89
2019-05-13T17:00:18.174Z,16.88
2019-05-13T17:02:49.652Z,16.88
2019-05-13T17:05:21.558Z,16.82
2019-05-13T17:07:56.585Z,16.82
2019-05-13T17:10:31.549Z,16.84
2019-05-13T17:13:04.041Z,16.84
2019-05-13T17:15:46.314Z,16.86
2019-05-13T17:18:26.851Z,16.85
2019-05-13T17:21:01.431Z,16.78
2019-05-13T17:23:36.374Z,16.81
2019-05-13T17:26:07.294Z,16.89
2019-05-13T17:28:38.006Z,16.94
2019-05-13T17:31:08.788Z,17.01
2019-05-13T17:33:42.783Z,17.10
2019-05-13T17:36:15.599Z,17.18
2019-05-13T17:38:52.127Z,17.28
2019-05-13T17:41:32.046Z,17.35
2019-05-13T17:44:15.201Z,17.32
2019-05-13T17:46:48.128Z,17.29
2019-05-13T17:49:18.702Z,17.24
2019-05-13T17:51:51.679Z,17.23
2019-05-13T17:54:22.811Z,17.23
2019-05-13T17:56:54.123Z,17.22
2019-05-13T17:59:41.953Z,17.18
2019-05-13T18:02:27.630Z,17.13
2019-05-13T18:05:01.991Z,17.19
2019-05-13T18:07:47.828Z,17.21
2019-05-13T18:10:37.231Z,17.21
2019-05-13T18:13:16.377Z,17.18
2019-05-13T18:15:56.783Z,17.20
2019-05-13T18:18:43.114Z,17.20
2019-05-13T18:21:11.815Z,17.20
2019-05-13T18:23:44.615Z,17.20
2019-05-13T18:26:16.353Z,17.12
2019-05-13T18:29:02.388Z,17.03
2019-05-13T18:31:42.082Z,16.95
2019-05-13T18:34:21.513Z,16.84
2019-05-13T18:37:02.426Z,16.72
2019-05-13T18:39:33.744Z,16.64
2019-05-13T18:42:18.642Z,16.86
2019-05-13T18:44:56.122Z,16.64
2019-05-13T18:47:28.010Z,16.52
2019-05-13T18:50:02.350Z,16.44
2019-05-13T18:52:35.017Z,16.33
2019-05-13T18:55:07.877Z,16.27
2019-05-13T18:57:38.581Z,16.20
2019-05-13T19:00:11.105Z,16.13
2019-05-13T19:02:41.867Z,16.07
2019-05-13T19:05:12.706Z,16.02
2019-05-13T19:07:46.409Z,16.00
2019-05-13T19:10:22.002Z,15.95
2019-05-13T19:12:57.926Z,15.93
2019-05-13T19:15:32.986Z,15.87
2019-05-13T19:18:04.116Z,15.83
2019-05-13T19:20:35.172Z,15.77
2019-05-13T19:23:11.955Z,15.72
2019-05-13T19:25:42.681Z,15.69
2019-05-13T19:28:15.088Z,15.69
2019-05-13T19:31:02.423Z,15.65
2019-05-13T19:33:43.233Z,15.63
2019-05-13T19:36:20.996Z,15.61
2019-05-13T19:38:55.803Z,15.60
2019-05-13T19:41:31.501Z,15.59
2019-05-13T19:44:06.424Z,15.58
2019-05-13T19:46:53.640Z,15.57
2019-05-13T19:49:32.105Z,15.52
2019-05-13T19:51:56.719Z,15.47
2019-05-13T19:54:31.281Z,15.43
2019-05-13T19:57:08.130Z,15.37
2019-05-13T19:59:42.496Z,15.28
2019-05-13T20:02:17.429Z,15.18
2019-05-13T20:04:48.406Z,15.09
2019-05-13T20:07:19.152Z,15.02
2019-05-13T20:09:52.020Z,14.95
2019-05-13T20:12:22.486Z,14.86
2019-05-13T20:15:03.342Z,14.81
2019-05-13T20:17:41.600Z,14.75
2019-05-13T20:20:31.745Z,14.70
2019-05-13T20:23:05.226Z,14.67
2019-05-13T20:25:41.736Z,14.66
2019-05-13T20:28:42.778Z,14.66
2019-05-13T20:31:17.829Z,14.66
2019-05-13T20:33:51.775Z,14.65
2019-05-13T20:36:25.145Z,14.62
2019-05-13T20:39:07.743Z,14.57
2019-05-13T20:41:41.470Z,14.48
2019-05-13T20:44:12.442Z,14.43
2019-05-13T20:46:47.204Z,14.37
2019-05-13T20:49:22.751Z,14.31
2019-05-13T20:51:53.765Z,14.29
2019-05-13T20:54:24.671Z,14.22
2019-05-13T20:56:58.890Z,14.19
2019-05-13T20:59:32.300Z,14.15
2019-05-13T21:02:14.796Z,14.09
2019-05-13T21:04:57.147Z,13.98
2019-05-13T21:07:29.437Z,13.91
2019-05-13T21:10:09.101Z,13.80
2019-05-13T21:12:41.951Z,13.71
2019-05-13T21:15:13.202Z,13.63
2019-05-13T21:17:55.566Z,13.57
2019-05-13T21:20:41.013Z,13.50
2019-05-13T21:23:11.413Z,13.47
2019-05-13T21:25:46.114Z,13.49
2019-05-13T21:28:17.877Z,13.51
2019-05-13T21:30:52.768Z,13.49
2019-05-13T21:33:24.276Z,13.44
2019-05-13T21:35:57.021Z,13.39
2019-05-13T21:38:32.238Z,13.33
2019-05-13T21:41:11.933Z,13.25
2019-05-13T21:44:15.662Z,13.14
2019-05-13T21:47:21.938Z,13.05
2019-05-13T21:50:37.355Z,12.99
2019-05-13T21:53:01.944Z,12.97
2019-05-13T21:56:05.701Z,12.95
2019-05-13T21:58:36.918Z,12.99
2019-05-13T22:01:07.583Z,13.03
2019-05-13T22:03:38.184Z,13.06
2019-05-13T22:06:10.967Z,13.06
2019-05-13T22:08:42.289Z,13.06
2019-05-13T22:11:31.719Z,13.07
2019-05-13T22:14:19.458Z,13.05
2019-05-13T22:16:56.923Z,13.03
2019-05-13T22:20:07.187Z,13.04
2019-05-13T22:23:23.271Z,12.99
2019-05-13T22:27:21.778Z,12.98
2019-05-13T22:30:40.738Z,12.96
2019-05-13T22:34:01.589Z,12.95
2019-05-13T22:37:41.197Z,12.94
2019-05-13T22:40:17.157Z,12.90
2019-05-13T22:42:57.259Z,12.91
2019-05-13T22:45:41.919Z,12.88
2019-05-13T22:48:15.862Z,12.85
2019-05-13T22:50:53.867Z,12.86
2019-05-13T22:53:24.564Z,12.86
2019-05-13T22:55:55.006Z,12.89
2019-05-13T22:58:31.786Z,12.88
2019-05-13T23:01:13.614Z,12.88
2019-05-13T23:03:46.612Z,12.88
2019-05-13T23:06:24.008Z,12.88
2019-05-13T23:09:02.029Z,12.87
2019-05-13T23:11:44.023Z,12.87
2019-05-13T23:14:30.049Z,12.87
2019-05-13T23:17:07.726Z,12.85
2019-05-13T23:19:51.981Z,12.85
2019-05-13T23:22:25.702Z,12.84
2019-05-13T23:25:03.735Z,12.82
2019-05-13T23:27:41.567Z,12.83
2019-05-13T23:30:15.745Z,12.86
2019-05-13T23:32:48.427Z,12.89
2019-05-13T23:35:21.729Z,12.90
2019-05-13T23:37:54.070Z,12.88
2019-05-13T23:40:24.563Z,12.88
2019-05-13T23:42:54.785Z,12.83
2019-05-13T23:45:26.535Z,12.83
2019-05-13T23:47:56.911Z,12.79
2019-05-13T23:50:32.045Z,12.76
2019-05-13T23:53:00.361Z,12.67
2019-05-13T23:55:32.213Z,12.62
2019-05-13T23:58:03.153Z,12.54
